createdAt,value
2018-04-25T00:00:14.808Z,13.20
2018-04-25T00:02:42.221Z,13.20
2018-04-25T00:05:09.648Z,13.30
2018-04-25T00:07:37.886Z,13.30
2018-04-25T00:10:05.304Z,13.30
2018-04-25T00:12:33.493Z,13.30
2018-04-25T00:15:01.708Z,13.40
2018-04-25T00:17:29.873Z,13.30
2018-04-25T00:19:58.077Z,13.30
2018-04-25T00:22:25.479Z,13.30
2018-04-25T00:24:53.044Z,13.40
2018-04-25T00:27:21.396Z,13.40
2018-04-25T00:29:48.812Z,13.30
2018-04-25T00:32:16.236Z,13.40
2018-04-25T00:34:43.669Z,13.40
2018-04-25T00:37:11.080Z,13.40
2018-04-25T00:39:38.497Z,13.40
2018-04-25T00:42:05.915Z,13.40
2018-04-25T00:44:33.422Z,13.40
2018-04-25T00:47:00.863Z,13.40
2018-04-25T00:49:28.279Z,13.40
2018-04-25T00:51:55.696Z,13.50
2018-04-25T00:54:23.115Z,13.50
2018-04-25T00:56:50.537Z,13.50
2018-04-25T00:59:17.990Z,13.50
2018-04-25T01:01:45.413Z,13.50
2018-04-25T01:04:12.835Z,13.50
2018-04-25T01:06:40.283Z,13.50
2018-04-25T01:09:07.713Z,13.50
2018-04-25T01:11:35.121Z,13.50
2018-04-25T01:14:02.540Z,13.50
2018-04-25T01:16:29.962Z,13.50
2018-04-25T01:18:58.263Z,13.50
2018-04-25T01:21:25.726Z,13.50
2018-04-25T01:23:53.197Z,13.50
2018-04-25T01:26:20.612Z,13.50
2018-04-25T01:28:51.552Z,13.50
2018-04-25T01:31:18.963Z,13.50
2018-04-25T01:33:53.012Z,13.50
2018-04-25T01:36:32.008Z,13.40
2018-04-25T01:41:55.902Z,13.40
2018-04-25T01:44:24.096Z,13.50
2018-04-25T01:50:18.559Z,13.50
2018-04-25T01:52:58.615Z,13.50
2018-04-25T01:55:37.952Z,13.50
2018-04-25T01:58:18.056Z,13.50
2018-04-25T02:00:58.056Z,13.50
2018-04-25T02:03:37.589Z,13.50
2018-04-25T02:06:06.597Z,13.50
2018-04-25T02:08:34.013Z,13.60
2018-04-25T02:11:01.435Z,13.60
2018-04-25T02:13:28.897Z,13.60
2018-04-25T02:15:57.092Z,13.60
2018-04-25T02:18:24.506Z,13.60
2018-04-25T02:20:51.921Z,13.60
2018-04-25T02:23:19.327Z,13.50
2018-04-25T02:25:46.740Z,13.50
2018-04-25T02:28:14.149Z,13.60
2018-04-25T02:30:41.584Z,13.60
2018-04-25T02:33:09.006Z,13.60
2018-04-25T02:35:36.422Z,13.60
2018-04-25T02:38:03.833Z,13.60
2018-04-25T02:40:31.249Z,13.60
2018-04-25T02:42:58.666Z,13.60
2018-04-25T02:45:26.088Z,13.60
2018-04-25T02:47:54.888Z,13.60
2018-04-25T02:50:22.303Z,13.60
2018-04-25T02:52:49.726Z,13.60
2018-04-25T02:55:17.205Z,13.70
2018-04-25T02:57:44.620Z,13.70
2018-04-25T03:00:12.045Z,13.70
2018-04-25T03:02:39.469Z,13.70
2018-04-25T03:05:06.980Z,13.70
2018-04-25T03:07:34.448Z,13.70
2018-04-25T03:10:01.990Z,13.70
2018-04-25T03:12:29.397Z,13.70
2018-04-25T03:14:56.817Z,13.70
2018-04-25T03:17:25.326Z,13.70
2018-04-25T03:19:53.545Z,13.70
2018-04-25T03:22:20.969Z,13.70
2018-04-25T03:24:48.396Z,13.70
2018-04-25T03:27:15.814Z,13.70
2018-04-25T03:29:43.993Z,13.70
2018-04-25T03:32:12.184Z,13.80
2018-04-25T03:34:40.369Z,13.80
2018-04-25T03:37:08.548Z,13.70
2018-04-25T03:39:36.791Z,13.70
2018-04-25T03:42:04.192Z,13.70
2018-04-25T03:44:31.613Z,13.80
2018-04-25T03:46:59.019Z,13.80
2018-04-25T03:49:26.540Z,13.90
2018-04-25T03:51:53.965Z,13.90
2018-04-25T03:54:21.472Z,13.90
2018-04-25T03:56:48.896Z,13.90
2018-04-25T03:59:17.813Z,14.00
2018-04-25T04:01:45.233Z,14.00
2018-04-25T04:04:12.673Z,14.00
2018-04-25T04:06:40.883Z,14.10
2018-04-25T04:09:08.344Z,14.10
2018-04-25T04:11:35.772Z,14.20
2018-04-25T04:14:03.240Z,14.30
2018-04-25T04:16:30.760Z,14.30
2018-04-25T04:18:58.229Z,14.40
2018-04-25T04:21:25.808Z,14.40
2018-04-25T04:23:53.212Z,14.50
2018-04-25T04:26:21.396Z,14.50
2018-04-25T04:28:48.872Z,14.50
2018-04-25T04:31:16.500Z,14.60
2018-04-25T04:33:43.904Z,14.60
2018-04-25T04:36:11.523Z,14.60
2018-04-25T04:38:38.956Z,14.70
2018-04-25T04:41:06.364Z,14.70
2018-04-25T04:43:33.796Z,14.70
2018-04-25T04:46:01.973Z,14.90
2018-04-25T04:48:29.407Z,14.90
2018-04-25T04:50:56.825Z,15.00
2018-04-25T04:53:25.954Z,15.00
2018-04-25T04:55:53.368Z,15.00
2018-04-25T04:58:20.792Z,15.10
2018-04-25T05:00:48.205Z,15.10
2018-04-25T05:03:15.616Z,15.20
2018-04-25T05:05:43.044Z,15.20
2018-04-25T05:08:10.451Z,15.20
2018-04-25T05:10:37.888Z,15.20
2018-04-25T05:13:05.403Z,15.30
2018-04-25T05:15:32.741Z,15.30
2018-04-25T05:18:00.932Z,15.40
2018-04-25T05:20:29.124Z,15.40
2018-04-25T05:22:57.306Z,15.40
2018-04-25T05:25:26.408Z,15.40
2018-04-25T05:27:54.601Z,15.40
2018-04-25T05:30:22.765Z,15.50
2018-04-25T05:32:51.696Z,15.50
2018-04-25T05:35:19.122Z,15.50
2018-04-25T05:37:46.532Z,15.50
2018-04-25T05:40:14.716Z,15.60
2018-04-25T05:42:42.913Z,15.60
2018-04-25T05:45:10.331Z,15.60
2018-04-25T05:47:37.745Z,15.60
2018-04-25T05:50:05.926Z,15.70
2018-04-25T05:52:34.245Z,15.70
2018-04-25T05:55:01.672Z,15.70
2018-04-25T05:57:29.893Z,15.60
2018-04-25T05:59:57.321Z,15.60
2018-04-25T06:02:25.514Z,15.70
2018-04-25T06:04:53.707Z,15.70
2018-04-25T06:07:21.898Z,15.70
2018-04-25T06:09:50.097Z,15.70
2018-04-25T06:12:17.522Z,15.70
2018-04-25T06:14:44.934Z,15.70
2018-04-25T06:17:12.353Z,15.70
2018-04-25T06:19:40.591Z,15.70
2018-04-25T06:22:08.021Z,15.80
2018-04-25T06:24:36.201Z,15.80
2018-04-25T06:27:03.683Z,15.80
2018-04-25T06:29:31.862Z,15.80
2018-04-25T06:31:59.283Z,15.80
2018-04-25T06:34:28.232Z,15.90
2018-04-25T06:36:55.652Z,15.90
2018-04-25T06:39:23.095Z,16.00
2018-04-25T06:41:50.488Z,15.90
2018-04-25T06:44:17.942Z,15.90
2018-04-25T06:46:46.107Z,15.90
2018-04-25T06:49:14.321Z,15.90
2018-04-25T06:51:41.753Z,15.90
2018-04-25T06:54:09.172Z,15.90
2018-04-25T06:56:36.604Z,15.90
2018-04-25T06:59:04.034Z,16.00
2018-04-25T07:01:31.457Z,16.00
2018-04-25T07:03:58.893Z,16.00
2018-04-25T07:06:26.506Z,16.00
2018-04-25T07:08:53.962Z,16.00
2018-04-25T07:11:21.392Z,16.00
2018-04-25T07:13:48.818Z,15.90
2018-04-25T07:16:16.222Z,16.00
2018-04-25T07:18:43.646Z,16.00
2018-04-25T07:21:11.116Z,16.00
2018-04-25T07:23:38.545Z,15.90
2018-04-25T07:26:05.956Z,15.90
2018-04-25T07:28:33.897Z,15.70
2018-04-25T07:31:02.107Z,15.30
2018-04-25T07:33:30.265Z,15.20
2018-04-25T07:35:59.192Z,14.90
2018-04-25T07:38:26.668Z,15.00
2018-04-25T07:40:54.841Z,14.80
2018-04-25T07:43:22.321Z,14.70
2018-04-25T07:45:49.736Z,14.80
2018-04-25T07:48:17.168Z,14.70
2018-04-25T07:50:44.584Z,14.90
2018-04-25T07:53:12.000Z,15.10
2018-04-25T07:55:39.408Z,15.20
2018-04-25T07:58:06.843Z,15.10
2018-04-25T08:00:34.321Z,15.00
2018-04-25T08:03:01.782Z,15.00
2018-04-25T08:05:29.193Z,15.00
2018-04-25T08:07:56.609Z,15.00
2018-04-25T08:10:24.047Z,15.30
2018-04-25T08:13:04.045Z,15.40
2018-04-25T08:15:43.368Z,15.40
2018-04-25T08:18:23.428Z,15.30
2018-04-25T08:23:54.961Z,15.30
2018-04-25T08:26:22.435Z,15.30
2018-04-25T08:28:49.892Z,15.30
2018-04-25T08:31:17.316Z,15.30
2018-04-25T08:33:44.834Z,15.40
2018-04-25T08:36:12.247Z,15.60
2018-04-25T08:38:39.769Z,15.70
2018-04-25T08:41:07.944Z,15.80
2018-04-25T08:43:36.184Z,15.90
2018-04-25T08:46:03.692Z,15.90
2018-04-25T08:48:31.890Z,15.90
2018-04-25T08:50:59.369Z,15.90
2018-04-25T08:53:27.525Z,16.20
2018-04-25T08:55:54.940Z,16.10
2018-04-25T08:58:22.361Z,16.20
2018-04-25T09:00:49.776Z,16.10
2018-04-25T09:03:17.201Z,16.20
2018-04-25T09:05:45.394Z,16.30
2018-04-25T09:08:13.593Z,16.50
2018-04-25T09:10:41.004Z,16.40
2018-04-25T09:13:08.529Z,16.30
2018-04-25T09:15:36.020Z,16.10
2018-04-25T09:18:04.146Z,15.00
2018-04-25T09:20:31.582Z,15.00
2018-04-25T09:22:59.896Z,14.60
2018-04-25T09:25:27.330Z,14.20
2018-04-25T09:27:54.746Z,14.00
2018-04-25T09:30:22.165Z,13.90
2018-04-25T09:32:49.588Z,13.90
2018-04-25T09:35:17.772Z,13.90
2018-04-25T09:37:45.948Z,14.00
2018-04-25T09:40:13.360Z,13.90
2018-04-25T09:42:40.783Z,14.10
2018-04-25T09:45:08.299Z,14.40
2018-04-25T09:47:36.466Z,14.70
2018-04-25T09:50:04.666Z,15.00
2018-04-25T09:52:32.063Z,15.00
2018-04-25T09:55:00.408Z,15.10
2018-04-25T09:57:28.627Z,15.00
2018-04-25T09:59:56.795Z,15.00
2018-04-25T10:02:30.723Z,15.00
2018-04-25T10:04:58.136Z,14.90
2018-04-25T10:07:25.569Z,14.90
2018-04-25T10:09:53.026Z,14.90
2018-04-25T10:12:20.593Z,15.10
2018-04-25T10:14:48.757Z,15.30
2018-04-25T10:17:16.966Z,15.40
2018-04-25T10:19:45.130Z,15.40
2018-04-25T10:22:13.315Z,15.40
2018-04-25T10:24:41.494Z,15.30
2018-04-25T10:27:09.846Z,15.10
2018-04-25T10:29:37.269Z,15.10
2018-04-25T10:32:05.530Z,15.10
2018-04-25T10:34:33.673Z,15.20
2018-04-25T10:37:01.904Z,15.30
2018-04-25T10:39:29.314Z,15.30
2018-04-25T10:41:56.721Z,15.30
2018-04-25T10:44:24.141Z,15.50
2018-04-25T10:46:51.595Z,15.50
2018-04-25T10:49:19.804Z,15.00
2018-04-25T10:51:47.212Z,15.00
2018-04-25T10:54:14.685Z,15.10
2018-04-25T10:56:42.068Z,14.90
2018-04-25T10:59:10.254Z,14.80
2018-04-25T11:01:38.428Z,14.80
2018-04-25T11:04:05.937Z,14.70
2018-04-25T11:06:34.149Z,14.60
2018-04-25T11:09:02.376Z,14.50
2018-04-25T11:11:29.780Z,14.50
2018-04-25T11:13:57.248Z,14.50
2018-04-25T11:16:24.651Z,14.40
2018-04-25T11:18:52.086Z,14.30
2018-04-25T11:21:19.504Z,14.20
2018-04-25T11:23:46.930Z,14.10
2018-04-25T11:26:15.105Z,14.20
2018-04-25T11:28:42.699Z,14.20
2018-04-25T11:31:10.103Z,14.30
2018-04-25T11:33:37.535Z,14.20
2018-04-25T11:36:04.962Z,14.10
2018-04-25T11:38:33.282Z,14.10
2018-04-25T11:41:02.375Z,14.00
2018-04-25T11:43:29.828Z,14.00
2018-04-25T11:45:57.228Z,13.90
2018-04-25T11:48:24.644Z,13.90
2018-04-25T11:50:52.059Z,13.90
2018-04-25T11:53:19.511Z,13.80
2018-04-25T11:55:47.708Z,13.90
2018-04-25T11:58:15.127Z,13.90
2018-04-25T12:00:42.551Z,14.00
2018-04-25T12:03:10.044Z,14.10
2018-04-25T12:05:37.388Z,14.10
2018-04-25T12:08:04.801Z,14.00
2018-04-25T12:10:32.652Z,14.20
2018-04-25T12:13:00.079Z,14.30
2018-04-25T12:15:28.265Z,14.00
2018-04-25T12:17:55.750Z,14.00
2018-04-25T12:20:23.905Z,13.70
2018-04-25T12:22:52.085Z,13.50
2018-04-25T12:25:19.502Z,13.50
2018-04-25T12:27:46.900Z,13.40
2018-04-25T12:30:14.325Z,13.30
2018-04-25T12:32:41.725Z,13.30
2018-04-25T12:35:09.166Z,13.40
2018-04-25T12:37:36.585Z,13.60
2018-04-25T12:40:04.001Z,13.70
2018-04-25T12:42:31.466Z,13.80
2018-04-25T12:44:59.650Z,13.70
2018-04-25T12:47:27.063Z,13.70
2018-04-25T12:49:54.496Z,13.80
2018-04-25T12:52:21.901Z,13.70
2018-04-25T12:54:49.328Z,13.60
2018-04-25T12:57:16.742Z,13.50
2018-04-25T12:59:44.150Z,13.40
2018-04-25T13:02:11.568Z,13.30
2018-04-25T13:04:38.994Z,13.30
2018-04-25T13:07:07.161Z,13.20
2018-04-25T13:09:34.592Z,13.20
2018-04-25T13:12:02.000Z,13.20
2018-04-25T13:14:29.412Z,13.10
2018-04-25T13:16:56.845Z,13.10
2018-04-25T13:19:25.037Z,13.10
2018-04-25T13:21:52.465Z,13.00
2018-04-25T13:24:19.873Z,13.10
2018-04-25T13:26:47.295Z,13.20
2018-04-25T13:29:14.703Z,13.30
2018-04-25T13:31:42.117Z,13.40
2018-04-25T13:34:09.564Z,13.40
2018-04-25T13:36:37.038Z,13.40
2018-04-25T13:39:04.491Z,13.40
2018-04-25T13:41:31.892Z,13.40
2018-04-25T13:43:59.317Z,13.40
2018-04-25T13:46:27.487Z,13.40
2018-04-25T13:48:55.672Z,13.40
2018-04-25T13:51:23.845Z,13.50
2018-04-25T13:53:52.172Z,13.60
2018-04-25T13:56:19.611Z,13.60
2018-04-25T13:58:47.827Z,13.60
2018-04-25T14:01:15.236Z,13.60
2018-04-25T14:03:42.669Z,13.50
2018-04-25T14:06:10.162Z,13.40
2018-04-25T14:08:37.562Z,13.40
2018-04-25T14:11:05.780Z,13.50
2018-04-25T14:13:34.867Z,13.50
2018-04-25T14:16:03.061Z,13.60
2018-04-25T14:18:30.460Z,13.50
2018-04-25T14:20:57.975Z,13.50
2018-04-25T14:23:25.384Z,13.40
2018-04-25T14:25:52.792Z,13.30
2018-04-25T14:28:20.362Z,13.10
2018-04-25T14:30:47.756Z,13.00
2018-04-25T14:33:15.185Z,12.80
2018-04-25T14:35:42.593Z,12.80
2018-04-25T14:38:10.768Z,12.80
2018-04-25T14:40:38.188Z,12.80
2018-04-25T14:43:05.649Z,12.80
2018-04-25T14:45:33.816Z,12.70
2018-04-25T14:48:01.233Z,12.70
2018-04-25T14:50:28.645Z,12.90
2018-04-25T14:52:56.821Z,13.20
2018-04-25T14:55:24.241Z,13.20
2018-04-25T14:57:51.750Z,13.40
2018-04-25T15:00:19.102Z,13.50
2018-04-25T15:02:46.514Z,13.40
2018-04-25T15:05:14.696Z,13.30
2018-04-25T15:07:42.888Z,13.20
2018-04-25T15:10:11.064Z,13.20
2018-04-25T15:12:39.258Z,13.30
2018-04-25T15:15:07.496Z,13.40
2018-04-25T15:17:34.916Z,13.30
2018-04-25T15:20:02.528Z,13.30
2018-04-25T15:22:29.929Z,13.30
2018-04-25T15:24:57.340Z,13.20
2018-04-25T15:27:24.777Z,13.20
2018-04-25T15:29:52.957Z,13.10
2018-04-25T15:32:21.186Z,13.10
2018-04-25T15:34:49.343Z,13.10
2018-04-25T15:37:17.551Z,13.20
2018-04-25T15:39:45.008Z,13.10
2018-04-25T15:42:12.436Z,13.10
2018-04-25T15:44:39.825Z,13.10
2018-04-25T15:47:08.016Z,13.20
2018-04-25T15:49:37.165Z,13.40
2018-04-25T15:52:04.581Z,13.30
2018-04-25T15:54:31.999Z,13.60
2018-04-25T15:56:59.453Z,13.70
2018-04-25T15:59:26.860Z,13.80
2018-04-25T16:01:54.282Z,14.40
2018-04-25T16:04:22.480Z,14.30
2018-04-25T16:06:50.049Z,14.30
2018-04-25T16:09:18.280Z,14.60
2018-04-25T16:11:45.701Z,14.60
2018-04-25T16:14:13.120Z,14.50
2018-04-25T16:16:40.540Z,14.40
2018-04-25T16:19:08.239Z,14.20
2018-04-25T16:21:35.654Z,14.30
2018-04-25T16:24:03.873Z,14.40
2018-04-25T16:26:31.349Z,14.40
2018-04-25T16:28:58.760Z,14.30
2018-04-25T16:31:26.179Z,14.20
2018-04-25T16:33:53.592Z,14.20
2018-04-25T16:36:21.112Z,14.20
2018-04-25T16:38:48.516Z,14.20
2018-04-25T16:41:15.933Z,14.20
2018-04-25T16:43:44.112Z,14.10
2018-04-25T16:46:12.312Z,14.40
2018-04-25T16:48:40.523Z,14.70
2018-04-25T16:51:08.814Z,14.80
2018-04-25T16:53:36.219Z,14.80
2018-04-25T16:56:03.651Z,15.50
2018-04-25T16:58:31.083Z,16.30
2018-04-25T17:00:59.272Z,17.80
2018-04-25T17:03:26.685Z,17.80
2018-04-25T17:05:54.104Z,18.10
2018-04-25T17:08:22.302Z,17.50
2018-04-25T17:10:49.786Z,17.50
2018-04-25T17:13:17.248Z,17.20
2018-04-25T17:15:45.538Z,17.10
2018-04-25T17:18:13.008Z,17.10
2018-04-25T17:20:40.426Z,16.80
2018-04-25T17:23:09.349Z,16.00
2018-04-25T17:25:37.564Z,15.80
2018-04-25T17:28:04.977Z,15.80
2018-04-25T17:30:32.383Z,15.50
2018-04-25T17:33:00.594Z,15.10
2018-04-25T17:35:28.019Z,15.10
2018-04-25T17:37:55.421Z,15.00
2018-04-25T17:40:22.816Z,15.00
2018-04-25T17:42:50.266Z,14.90
2018-04-25T17:45:17.661Z,14.80
2018-04-25T17:47:45.089Z,14.80
2018-04-25T17:50:12.498Z,14.80
2018-04-25T17:52:39.910Z,14.70
2018-04-25T17:55:09.013Z,14.70
2018-04-25T17:57:37.232Z,14.70
2018-04-25T18:00:04.649Z,14.70
2018-04-25T18:02:32.150Z,14.60
2018-04-25T18:04:59.580Z,14.60
2018-04-25T18:07:26.984Z,14.60
2018-04-25T18:09:54.471Z,14.60
2018-04-25T18:12:22.029Z,14.60
2018-04-25T18:14:49.508Z,14.60
2018-04-25T18:17:16.932Z,14.60
2018-04-25T18:19:44.344Z,14.70
2018-04-25T18:22:11.762Z,14.50
2018-04-25T18:24:40.164Z,13.40
2018-04-25T18:27:07.780Z,13.40
2018-04-25T18:29:35.252Z,13.20
2018-04-25T18:32:02.656Z,13.20
2018-04-25T18:34:30.068Z,13.30
2018-04-25T18:36:57.484Z,13.30
2018-04-25T18:39:24.984Z,13.10
2018-04-25T18:41:53.083Z,13.20
2018-04-25T18:44:21.260Z,13.20
2018-04-25T18:46:49.442Z,13.00
2018-04-25T18:49:17.627Z,12.60
2018-04-25T18:51:45.044Z,12.50
2018-04-25T18:54:12.453Z,12.10
2018-04-25T18:56:40.657Z,11.50
2018-04-25T18:59:08.052Z,11.40
2018-04-25T19:01:35.485Z,11.30
2018-04-25T19:04:03.668Z,11.00
2018-04-25T19:06:31.868Z,11.00
2018-04-25T19:09:00.034Z,10.90
2018-04-25T19:11:27.436Z,10.80
2018-04-25T19:13:54.857Z,10.70
2018-04-25T19:16:22.281Z,10.60
2018-04-25T19:18:49.684Z,10.60
2018-04-25T19:21:17.093Z,10.40
2018-04-25T19:23:45.284Z,10.30
2018-04-25T19:26:13.451Z,10.30
2018-04-25T19:28:41.632Z,10.30
2018-04-25T19:31:09.077Z,10.20
2018-04-25T19:33:36.531Z,10.30
2018-04-25T19:36:03.924Z,10.20
2018-04-25T19:38:31.357Z,10.20
2018-04-25T19:40:58.813Z,10.10
2018-04-25T19:43:26.225Z,10.10
2018-04-25T19:45:53.650Z,10.10
2018-04-25T19:48:21.064Z,10.10
2018-04-25T19:50:48.492Z,10.10
2018-04-25T19:53:15.921Z,10.00
2018-04-25T19:55:44.121Z,9.90
2018-04-25T19:58:12.313Z,9.90
2018-04-25T20:00:41.403Z,9.80
2018-04-25T20:03:10.508Z,9.80
2018-04-25T20:05:38.689Z,9.80
2018-04-25T20:08:06.100Z,9.80
2018-04-25T20:10:33.505Z,9.80
2018-04-25T20:13:00.936Z,9.70
2018-04-25T20:15:28.391Z,9.70
2018-04-25T20:17:55.800Z,9.60
2018-04-25T20:20:23.215Z,9.60
2018-04-25T20:22:51.431Z,9.90
2018-04-25T20:25:18.864Z,9.90
2018-04-25T20:27:47.066Z,10.10
2018-04-25T20:30:14.503Z,10.10
2018-04-25T20:32:41.908Z,10.00
2018-04-25T20:35:09.324Z,10.10
2018-04-25T20:37:36.757Z,10.00
2018-04-25T20:40:04.220Z,9.90
2018-04-25T20:42:31.637Z,9.90
2018-04-25T20:44:59.042Z,9.90
2018-04-25T20:47:26.456Z,9.80
2018-04-25T20:49:53.861Z,9.80
2018-04-25T20:52:22.038Z,9.70
2018-04-25T20:54:50.208Z,9.70
2018-04-25T20:57:18.384Z,9.60
2018-04-25T20:59:45.809Z,9.60
2018-04-25T21:02:13.316Z,9.70
2018-04-25T21:04:41.654Z,9.60
2018-04-25T21:07:09.833Z,9.50
2018-04-25T21:09:38.063Z,9.50
2018-04-25T21:12:05.474Z,9.50
2018-04-25T21:14:33.676Z,9.30
2018-04-25T21:17:01.885Z,9.20
2018-04-25T21:19:30.178Z,9.20
2018-04-25T21:21:57.603Z,9.20
2018-04-25T21:24:25.024Z,9.10
2018-04-25T21:26:52.447Z,9.10
2018-04-25T21:29:20.628Z,8.90
2018-04-25T21:31:48.807Z,8.90
2018-04-25T21:34:16.232Z,8.90
2018-04-25T21:36:43.692Z,8.80
2018-04-25T21:39:12.037Z,8.80
2018-04-25T21:41:40.216Z,8.80
2018-04-25T21:44:07.652Z,8.80
2018-04-25T21:46:35.069Z,8.80
2018-04-25T21:49:03.247Z,8.80
2018-04-25T21:51:31.431Z,8.70
2018-04-25T21:53:59.619Z,8.70
2018-04-25T21:56:27.027Z,8.60
2018-04-25T21:58:54.437Z,8.70
2018-04-25T22:01:21.869Z,8.70
2018-04-25T22:03:49.283Z,8.70
2018-04-25T22:06:16.695Z,8.70
2018-04-25T22:08:44.124Z,8.70
2018-04-25T22:11:12.647Z,8.70
2018-04-25T22:13:40.069Z,8.70
2018-04-25T22:16:07.507Z,8.70
2018-04-25T22:18:35.732Z,8.60
2018-04-25T22:21:03.147Z,8.60
2018-04-25T22:23:30.557Z,8.60
2018-04-25T22:25:57.969Z,8.50
2018-04-25T22:28:25.398Z,8.50
2018-04-25T22:30:52.812Z,8.50
2018-04-25T22:33:20.251Z,8.50
2018-04-25T22:35:48.432Z,8.70
2018-04-25T22:38:15.840Z,8.60
2018-04-25T22:40:43.277Z,8.60
2018-04-25T22:43:11.467Z,8.40
2018-04-25T22:45:39.640Z,8.20
2018-04-25T22:48:07.844Z,8.20
2018-04-25T22:50:35.292Z,8.20
2018-04-25T22:53:03.503Z,8.20
2018-04-25T22:55:30.908Z,8.20
2018-04-25T22:57:58.341Z,8.20
2018-04-25T23:00:25.756Z,8.20
2018-04-25T23:02:53.188Z,8.10
2018-04-25T23:05:20.593Z,8.10
2018-04-25T23:07:48.028Z,8.10
2018-04-25T23:10:15.477Z,8.10
2018-04-25T23:12:44.377Z,8.00
2018-04-25T23:15:13.477Z,8.00
2018-04-25T23:17:41.669Z,8.00
2018-04-25T23:20:09.849Z,8.00
2018-04-25T23:22:38.020Z,8.00
2018-04-25T23:25:05.554Z,8.00
2018-04-25T23:27:32.896Z,8.10
2018-04-25T23:30:00.329Z,8.10
2018-04-25T23:32:27.735Z,8.10
2018-04-25T23:34:55.157Z,8.10
2018-04-25T23:37:22.595Z,8.10
2018-04-25T23:39:50.009Z,8.20
2018-04-25T23:42:17.438Z,8.20
2018-04-25T23:44:44.860Z,8.20
2018-04-25T23:47:12.268Z,8.20
2018-04-25T23:49:39.688Z,8.20
2018-04-25T23:52:07.872Z,8.20
2018-04-25T23:54:36.040Z,8.20
2018-04-25T23:57:04.267Z,8.20
2018-04-25T23:59:31.680Z,8.20
